sensor_id;sensor_type;location;lat;lon;timestamp;pressure;altitude;pressure_sealevel;temperature;humidity
69624;BME280;56843;52.020;5.670;2023-03-19T00:00:42;100872.59;;;15.41;56.76
69624;BME280;56843;52.020;5.670;2023-03-19T00:02:12;100867.97;;;15.41;56.90
69624;BME280;56843;52.020;5.670;2023-03-19T00:03:43;100874.50;;;15.40;56.73
69624;BME280;56843;52.020;5.670;2023-03-19T00:05:13;100873.38;;;15.41;56.84
69624;BME280;56843;52.020;5.670;2023-03-19T00:06:44;100876.06;;;15.41;56.70
69624;BME280;56843;52.020;5.670;2023-03-19T00:08:15;100881.03;;;15.39;56.84
69624;BME280;56843;52.020;5.670;2023-03-19T00:09:45;100875.63;;;15.39;56.90
69624;BME280;56843;52.020;5.670;2023-03-19T00:11:17;100882.13;;;15.38;57.07
69624;BME280;56843;52.020;5.670;2023-03-19T00:12:47;100882.50;;;15.37;57.00
69624;BME280;56843;52.020;5.670;2023-03-19T00:14:18;100879.44;;;15.38;56.91
69624;BME280;56843;52.020;5.670;2023-03-19T00:15:48;100872.84;;;15.36;56.78
69624;BME280;56843;52.020;5.670;2023-03-19T00:17:19;100881.72;;;15.36;56.87
69624;BME280;56843;52.020;5.670;2023-03-19T00:18:50;100878.22;;;15.36;57.02
69624;BME280;56843;52.020;5.670;2023-03-19T00:20:21;100875.53;;;15.36;57.05
69624;BME280;56843;52.020;5.670;2023-03-19T00:21:51;100874.00;;;15.35;56.93
69624;BME280;56843;52.020;5.670;2023-03-19T00:23:22;100876.69;;;15.35;57.13
69624;BME280;56843;52.020;5.670;2023-03-19T00:24:52;100886.31;;;15.36;57.05
69624;BME280;56843;52.020;5.670;2023-03-19T00:26:23;100878.59;;;15.34;57.05
69624;BME280;56843;52.020;5.670;2023-03-19T00:27:53;100886.31;;;15.36;56.88
69624;BME280;56843;52.020;5.670;2023-03-19T00:29:24;100891.69;;;15.36;56.74
69624;BME280;56843;52.020;5.670;2023-03-19T00:30:55;100878.22;;;15.36;56.84
69624;BME280;56843;52.020;5.670;2023-03-19T00:32:26;100878.22;;;15.36;56.74
69624;BME280;56843;52.020;5.670;2023-03-19T00:33:57;100879.81;;;15.37;56.76
69624;BME280;56843;52.020;5.670;2023-03-19T00:35:28;100887.53;;;15.38;56.78
69624;BME280;56843;52.020;5.670;2023-03-19T00:36:58;100891.00;;;15.39;56.89
69624;BME280;56843;52.020;5.670;2023-03-19T00:38:29;100886.75;;;15.38;56.81
69624;BME280;56843;52.020;5.670;2023-03-19T00:40:00;100879.44;;;15.38;56.78
69624;BME280;56843;52.020;5.670;2023-03-19T00:41:31;100884.50;;;15.40;56.96
69624;BME280;56843;52.020;5.670;2023-03-19T00:43:01;100895.59;;;15.38;56.85
69624;BME280;56843;52.020;5.670;2023-03-19T00:44:32;100883.72;;;15.39;56.82
69624;BME280;56843;52.020;5.670;2023-03-19T00:46:03;100885.63;;;15.39;56.85
69624;BME280;56843;52.020;5.670;2023-03-19T00:47:33;100889.44;;;15.38;56.85
69624;BME280;56843;52.020;5.670;2023-03-19T00:49:05;100886.75;;;15.38;56.73
69624;BME280;56843;52.020;5.670;2023-03-19T00:50:35;100888.31;;;15.39;56.88
69624;BME280;56843;52.020;5.670;2023-03-19T00:52:06;100893.69;;;15.39;56.61
69624;BME280;56843;52.020;5.670;2023-03-19T00:53:41;100888.31;;;15.39;56.91
69624;BME280;56843;52.020;5.670;2023-03-19T00:55:11;100890.22;;;15.38;56.90
69624;BME280;56843;52.020;5.670;2023-03-19T00:56:42;100892.16;;;15.38;56.90
69624;BME280;56843;52.020;5.670;2023-03-19T00:58:12;100891.00;;;15.39;56.90
69624;BME280;56843;52.020;5.670;2023-03-19T00:59:43;100884.50;;;15.40;56.98
69624;BME280;56843;52.020;5.670;2023-03-19T01:01:15;100883.72;;;15.39;56.89
69624;BME280;56843;52.020;5.670;2023-03-19T01:02:46;100884.50;;;15.40;56.65
69624;BME280;56843;52.020;5.670;2023-03-19T01:04:17;100887.53;;;15.38;56.60
69624;BME280;56843;52.020;5.670;2023-03-19T01:05:48;100893.69;;;15.39;57.03
69624;BME280;56843;52.020;5.670;2023-03-19T01:07:19;100891.00;;;15.39;56.71
69624;BME280;56843;52.020;5.670;2023-03-19T01:08:50;100895.25;;;15.40;56.72
69624;BME280;56843;52.020;5.670;2023-03-19T01:10:22;100883.72;;;15.39;56.76
69624;BME280;56843;52.020;5.670;2023-03-19T01:11:53;100896.00;;;15.40;56.72
69624;BME280;56843;52.020;5.670;2023-03-19T01:13:24;100880.59;;;15.37;56.60
69624;BME280;56843;52.020;5.670;2023-03-19T01:14:55;100899.84;;;15.39;56.60
69624;BME280;56843;52.020;5.670;2023-03-19T01:16:26;100888.31;;;15.39;56.88
69624;BME280;56843;52.020;5.670;2023-03-19T01:17:56;100889.44;;;15.38;56.99
69624;BME280;56843;52.020;5.670;2023-03-19T01:19:27;100886.75;;;15.38;56.70
69624;BME280;56843;52.020;5.670;2023-03-19T01:20:59;100886.75;;;15.38;56.83
69624;BME280;56843;52.020;5.670;2023-03-19T01:22:35;100881.38;;;15.38;56.86
69624;BME280;56843;52.020;5.670;2023-03-19T01:24:05;100885.13;;;15.33;56.80
69624;BME280;56843;52.020;5.670;2023-03-19T01:25:37;100882.50;;;15.37;56.91
69624;BME280;56843;52.020;5.670;2023-03-19T01:27:09;100886.31;;;15.36;56.92
69624;BME280;56843;52.020;5.670;2023-03-19T01:28:40;100884.41;;;15.36;57.03
69624;BME280;56843;52.020;5.670;2023-03-19T01:30:11;100889.78;;;15.36;56.89
69624;BME280;56843;52.020;5.670;2023-03-19T01:32:08;100890.50;;;15.33;56.98
69624;BME280;56843;52.020;5.670;2023-03-19T01:33:57;100890.84;;;15.32;56.91
69624;BME280;56843;52.020;5.670;2023-03-19T01:35:38;100891.63;;;15.32;56.87
69624;BME280;56843;52.020;5.670;2023-03-19T01:37:09;100884.34;;;15.33;56.79
69624;BME280;56843;52.020;5.670;2023-03-19T01:38:41;100895.09;;;15.33;56.67
69624;BME280;56843;52.020;5.670;2023-03-19T01:40:17;100892.41;;;15.33;56.79
69624;BME280;56843;52.020;5.670;2023-03-19T01:41:48;100882.00;;;15.31;56.73
69624;BME280;56843;52.020;5.670;2023-03-19T01:43:57;100882.69;;;15.28;56.96
69624;BME280;56843;52.020;5.670;2023-03-19T01:45:45;100883.81;;;15.27;57.03
69624;BME280;56843;52.020;5.670;2023-03-19T01:47:38;100892.25;;;15.26;56.93
69624;BME280;56843;52.020;5.670;2023-03-19T01:49:14;100891.88;;;15.27;57.03
69624;BME280;56843;52.020;5.670;2023-03-19T01:50:49;100892.69;;;15.28;56.97
69624;BME280;56843;52.020;5.670;2023-03-19T01:52:49;100893.38;;;15.25;56.91
69624;BME280;56843;52.020;5.670;2023-03-19T01:54:29;100887.66;;;15.26;56.86
69624;BME280;56843;52.020;5.670;2023-03-19T01:56:26;100884.97;;;15.26;56.84
69624;BME280;56843;52.020;5.670;2023-03-19T01:58:06;100891.47;;;15.25;57.05
69624;BME280;56843;52.020;5.670;2023-03-19T02:02:26;100889.91;;;15.24;56.94
69624;BME280;56843;52.020;5.670;2023-03-19T02:03:59;100896.41;;;15.23;56.83
69624;BME280;56843;52.020;5.670;2023-03-19T02:05:34;100899.53;;;15.25;57.03
69624;BME280;56843;52.020;5.670;2023-03-19T02:07:10;100898.41;;;15.26;56.77
69624;BME280;56843;52.020;5.670;2023-03-19T02:08:42;100893.03;;;15.26;56.88
69624;BME280;56843;52.020;5.670;2023-03-19T02:10:15;100893.47;;;15.28;56.95
69624;BME280;56843;52.020;5.670;2023-03-19T02:11:46;100891.88;;;15.27;56.94
69624;BME280;56843;52.020;5.670;2023-03-19T02:13:17;100891.13;;;15.27;56.76
69624;BME280;56843;52.020;5.670;2023-03-19T02:14:47;100889.19;;;15.27;56.95
69624;BME280;56843;52.020;5.670;2023-03-19T02:16:18;100888.09;;;15.28;56.69
69624;BME280;56843;52.020;5.670;2023-03-19T02:17:49;100889.19;;;15.27;56.90
69624;BME280;56843;52.020;5.670;2023-03-19T02:19:31;100888.88;;;15.29;56.82
69624;BME280;56843;52.020;5.670;2023-03-19T02:21:16;100883.81;;;15.27;56.78
69624;BME280;56843;52.020;5.670;2023-03-19T02:24:40;100881.13;;;15.27;56.70
69624;BME280;56843;52.020;5.670;2023-03-19T02:26:20;100882.59;;;15.25;56.78
69624;BME280;56843;52.020;5.670;2023-03-19T02:27:53;100881.50;;;15.26;56.97
69624;BME280;56843;52.020;5.670;2023-03-19T02:29:24;100881.13;;;15.27;56.87
69624;BME280;56843;52.020;5.670;2023-03-19T02:30:55;100892.25;;;15.26;57.20
69624;BME280;56843;52.020;5.670;2023-03-19T02:32:25;100881.91;;;15.28;56.99
69624;BME280;56843;52.020;5.670;2023-03-19T02:34:04;100883.50;;;15.29;56.74
69624;BME280;56843;52.020;5.670;2023-03-19T02:35:36;100881.13;;;15.27;56.88
69624;BME280;56843;52.020;5.670;2023-03-19T02:37:11;100881.56;;;15.29;56.89
69624;BME280;56843;52.020;5.670;2023-03-19T02:38:43;100882.69;;;15.28;56.96
69624;BME280;56843;52.020;5.670;2023-03-19T02:40:20;100880.44;;;15.30;56.98
69624;BME280;56843;52.020;5.670;2023-03-19T02:41:53;100877.31;;;15.28;56.93
69624;BME280;56843;52.020;5.670;2023-03-19T02:43:24;100876.53;;;15.28;57.20
69624;BME280;56843;52.020;5.670;2023-03-19T02:44:55;100875.75;;;15.27;56.92
69624;BME280;56843;52.020;5.670;2023-03-19T02:46:26;100879.91;;;15.25;56.73
69624;BME280;56843;52.020;5.670;2023-03-19T02:47:58;100886.94;;;15.29;56.81
69624;BME280;56843;52.020;5.670;2023-03-19T02:49:28;100894.25;;;15.29;56.84
69624;BME280;56843;52.020;5.670;2023-03-19T02:50:59;100890.78;;;15.28;56.84
69624;BME280;56843;52.020;5.670;2023-03-19T02:52:30;100887.28;;;15.28;56.68
69624;BME280;56843;52.020;5.670;2023-03-19T02:54:01;100893.47;;;15.28;56.93
69624;BME280;56843;52.020;5.670;2023-03-19T02:55:31;100899.63;;;15.29;56.76
69624;BME280;56843;52.020;5.670;2023-03-19T02:57:02;100898.84;;;15.28;56.84
69624;BME280;56843;52.020;5.670;2023-03-19T02:58:33;100898.84;;;15.28;56.99
69624;BME280;56843;52.020;5.670;2023-03-19T03:00:05;100903.09;;;15.29;56.89
69624;BME280;56843;52.020;5.670;2023-03-19T03:01:37;100903.88;;;15.30;56.69
69624;BME280;56843;52.020;5.670;2023-03-19T03:03:07;100900.38;;;15.29;56.82
69624;BME280;56843;52.020;5.670;2023-03-19T03:04:38;100905.00;;;15.29;56.79
69624;BME280;56843;52.020;5.670;2023-03-19T03:06:09;100905.78;;;15.29;56.67
69624;BME280;56843;52.020;5.670;2023-03-19T03:07:39;100904.66;;;15.30;56.77
69624;BME280;56843;52.020;5.670;2023-03-19T03:09:12;100906.91;;;15.28;56.90
69624;BME280;56843;52.020;5.670;2023-03-19T03:10:43;100907.34;;;15.30;56.76
69624;BME280;56843;52.020;5.670;2023-03-19T03:12:14;100913.50;;;15.31;56.73
69624;BME280;56843;52.020;5.670;2023-03-19T03:13:44;100910.81;;;15.31;56.91
69624;BME280;56843;52.020;5.670;2023-03-19T03:15:15;100919.69;;;15.31;56.60
69624;BME280;56843;52.020;5.670;2023-03-19T03:16:46;100905.44;;;15.31;56.75
69624;BME280;56843;52.020;5.670;2023-03-19T03:18:17;100905.44;;;15.31;56.75
69624;BME280;56843;52.020;5.670;2023-03-19T03:19:48;100909.25;;;15.30;56.81
69624;BME280;56843;52.020;5.670;2023-03-19T03:21:19;100913.84;;;15.29;56.92
69624;BME280;56843;52.020;5.670;2023-03-19T03:22:50;100908.81;;;15.28;56.79
69624;BME280;56843;52.020;5.670;2023-03-19T03:24:21;100906.91;;;15.28;56.68
69624;BME280;56843;52.020;5.670;2023-03-19T03:25:51;100901.53;;;15.28;56.83
69624;BME280;56843;52.020;5.670;2023-03-19T03:27:22;100901.09;;;15.26;56.83
69624;BME280;56843;52.020;5.670;2023-03-19T03:28:52;100912.31;;;15.28;56.88
69624;BME280;56843;52.020;5.670;2023-03-19T03:30:23;100903.44;;;15.28;56.69
69624;BME280;56843;52.020;5.670;2023-03-19T03:31:54;100915.00;;;15.28;56.82
69624;BME280;56843;52.020;5.670;2023-03-19T03:33:25;100913.41;;;15.27;56.76
69624;BME280;56843;52.020;5.670;2023-03-19T03:34:56;100906.06;;;15.24;56.96
69624;BME280;56843;52.020;5.670;2023-03-19T03:36:27;100916.88;;;15.28;56.94
69624;BME280;56843;52.020;5.670;2023-03-19T03:37:58;100912.66;;;15.27;56.75
69624;BME280;56843;52.020;5.670;2023-03-19T03:39:28;100911.09;;;15.26;56.76
69624;BME280;56843;52.020;5.670;2023-03-19T03:40:59;100903.81;;;15.26;56.83
69624;BME280;56843;52.020;5.670;2023-03-19T03:42:30;100907.28;;;15.27;56.61
69624;BME280;56843;52.020;5.670;2023-03-19T03:44:00;100904.59;;;15.27;56.87
69624;BME280;56843;52.020;5.670;2023-03-19T03:45:31;100896.50;;;15.27;56.83
69624;BME280;56843;52.020;5.670;2023-03-19T03:47:02;100898.41;;;15.26;56.80
69624;BME280;56843;52.020;5.670;2023-03-19T03:48:34;100901.91;;;15.27;56.91
69624;BME280;56843;52.020;5.670;2023-03-19T03:50:05;100902.66;;;15.27;56.69
69624;BME280;56843;52.020;5.670;2023-03-19T03:51:36;100906.50;;;15.26;56.62
69624;BME280;56843;52.020;5.670;2023-03-19T03:53:07;100905.34;;;15.27;56.93
69624;BME280;56843;52.020;5.670;2023-03-19T03:54:38;100907.28;;;15.27;56.84
69624;BME280;56843;52.020;5.670;2023-03-19T03:56:08;100907.59;;;15.25;56.68
69624;BME280;56843;52.020;5.670;2023-03-19T03:57:39;100906.81;;;15.25;56.72
69624;BME280;56843;52.020;5.670;2023-03-19T03:59:09;100914.56;;;15.26;56.92
69624;BME280;56843;52.020;5.670;2023-03-19T04:00:40;100917.59;;;15.25;56.83
69624;BME280;56843;52.020;5.670;2023-03-19T04:02:10;100915.69;;;15.25;56.78
69624;BME280;56843;52.020;5.670;2023-03-19T04:03:41;100914.13;;;15.24;56.86
69624;BME280;56843;52.020;5.670;2023-03-19T04:05:12;100916.81;;;15.24;56.67
69624;BME280;56843;52.020;5.670;2023-03-19T04:06:43;100922.63;;;15.26;56.70
69624;BME280;56843;52.020;5.670;2023-03-19T04:08:23;100915.25;;;15.23;57.06
69624;BME280;56843;52.020;5.670;2023-03-19T04:09:56;100919.50;;;15.24;56.69
69624;BME280;56843;52.020;5.670;2023-03-19T04:11:27;100919.50;;;15.24;56.74
69624;BME280;56843;52.020;5.670;2023-03-19T04:12:58;100906.81;;;15.25;56.86
69624;BME280;56843;52.020;5.670;2023-03-19T04:14:30;100918.38;;;15.25;56.68
69624;BME280;56843;52.020;5.670;2023-03-19T04:16:03;100904.50;;;15.23;56.92
69624;BME280;56843;52.020;5.670;2023-03-19T04:17:34;100912.19;;;15.25;56.82
69624;BME280;56843;52.020;5.670;2023-03-19T04:19:04;100914.47;;;15.23;56.76
69624;BME280;56843;52.020;5.670;2023-03-19T04:20:36;100918.72;;;15.24;56.92
69624;BME280;56843;52.020;5.670;2023-03-19T04:22:07;100915.63;;;15.22;56.81
69624;BME280;56843;52.020;5.670;2023-03-19T04:23:38;100915.63;;;15.22;56.91
69624;BME280;56843;52.020;5.670;2023-03-19T04:25:09;100915.63;;;15.22;57.00
69624;BME280;56843;52.020;5.670;2023-03-19T04:26:41;100914.81;;;15.21;57.05
69624;BME280;56843;52.020;5.670;2023-03-19T04:28:11;100912.91;;;15.22;56.96
69624;BME280;56843;52.020;5.670;2023-03-19T04:29:42;100919.41;;;15.21;56.81
69624;BME280;56843;52.020;5.670;2023-03-19T04:31:13;100910.59;;;15.20;56.81
69624;BME280;56843;52.020;5.670;2023-03-19T04:32:47;100917.09;;;15.19;56.72
69624;BME280;56843;52.020;5.670;2023-03-19T04:34:18;100923.25;;;15.20;56.94
69624;BME280;56843;52.020;5.670;2023-03-19T04:35:49;100924.03;;;15.20;56.90
69624;BME280;56843;52.020;5.670;2023-03-19T04:37:19;100932.13;;;15.20;56.94
69624;BME280;56843;52.020;5.670;2023-03-19T04:38:53;100927.06;;;15.19;56.79
69624;BME280;56843;52.020;5.670;2023-03-19T04:40:24;100923.25;;;15.20;56.84
69624;BME280;56843;52.020;5.670;2023-03-19T04:41:54;100924.03;;;15.20;56.92
69624;BME280;56843;52.020;5.670;2023-03-19T04:43:33;100935.13;;;15.19;56.92
69624;BME280;56843;52.020;5.670;2023-03-19T04:45:07;100929.75;;;15.19;56.83
69624;BME280;56843;52.020;5.670;2023-03-19T04:46:38;100926.28;;;15.18;56.70
69624;BME280;56843;52.020;5.670;2023-03-19T04:48:08;100937.03;;;15.18;56.87
69624;BME280;56843;52.020;5.670;2023-03-19T04:49:39;100930.13;;;15.17;56.81
69624;BME280;56843;52.020;5.670;2023-03-19T04:51:11;100924.72;;;15.17;56.75
69624;BME280;56843;52.020;5.670;2023-03-19T04:52:42;100930.13;;;15.17;56.90
69624;BME280;56843;52.020;5.670;2023-03-19T04:54:12;100929.75;;;15.19;56.87
69624;BME280;56843;52.020;5.670;2023-03-19T04:55:43;100932.44;;;15.19;56.92
69624;BME280;56843;52.020;5.670;2023-03-19T04:57:19;100920.81;;;15.15;56.71
69624;BME280;56843;52.020;5.670;2023-03-19T04:58:52;100938.19;;;15.17;56.84
69624;BME280;56843;52.020;5.670;2023-03-19T05:00:23;100938.19;;;15.17;56.86
69624;BME280;56843;52.020;5.670;2023-03-19T05:01:53;100932.38;;;15.15;56.64
69624;BME280;56843;52.020;5.670;2023-03-19T05:03:26;100936.19;;;15.14;56.98
69624;BME280;56843;52.020;5.670;2023-03-19T05:04:56;100938.88;;;15.14;56.79
69624;BME280;56843;52.020;5.670;2023-03-19T05:06:29;100932.69;;;15.14;57.01
69624;BME280;56843;52.020;5.670;2023-03-19T05:08:01;100930.00;;;15.14;57.02
69624;BME280;56843;52.020;5.670;2023-03-19T05:09:32;100938.88;;;15.14;56.87
69624;BME280;56843;52.020;5.670;2023-03-19T05:11:03;100942.34;;;15.15;56.89
69624;BME280;56843;52.020;5.670;2023-03-19T05:12:43;100938.00;;;15.10;56.91
69624;BME280;56843;52.020;5.670;2023-03-19T05:14:14;100943.81;;;15.12;56.99
69624;BME280;56843;52.020;5.670;2023-03-19T05:16:04;100943.75;;;15.09;56.88
69624;BME280;56843;52.020;5.670;2023-03-19T05:17:36;100944.53;;;15.09;57.23
69624;BME280;56843;52.020;5.670;2023-03-19T05:19:14;100951.03;;;15.08;56.89
69624;BME280;56843;52.020;5.670;2023-03-19T05:20:45;100949.91;;;15.09;56.88
69624;BME280;56843;52.020;5.670;2023-03-19T05:22:22;100951.03;;;15.08;56.95
69624;BME280;56843;52.020;5.670;2023-03-19T05:23:53;100953.72;;;15.08;56.94
69624;BME280;56843;52.020;5.670;2023-03-19T05:25:25;100959.47;;;15.07;56.94
69624;BME280;56843;52.020;5.670;2023-03-19T05:26:57;100961.78;;;15.08;57.01
69624;BME280;56843;52.020;5.670;2023-03-19T05:28:46;100955.97;;;15.06;57.08
69624;BME280;56843;52.020;5.670;2023-03-19T05:30:19;100955.97;;;15.06;56.95
69624;BME280;56843;52.020;5.670;2023-03-19T05:32:05;100953.66;;;15.05;56.96
69624;BME280;56843;52.020;5.670;2023-03-19T05:33:36;100960.56;;;15.06;57.08
69624;BME280;56843;52.020;5.670;2023-03-19T05:35:07;100958.69;;;15.06;56.94
69624;BME280;56843;52.020;5.670;2023-03-19T05:36:39;100971.75;;;15.08;57.38
69624;BME280;56843;52.020;5.670;2023-03-19T05:38:20;100968.28;;;15.07;56.99
69624;BME280;56843;52.020;5.670;2023-03-19T05:39:58;100967.53;;;15.07;57.04
69624;BME280;56843;52.020;5.670;2023-03-19T05:41:28;100970.97;;;15.07;57.12
69624;BME280;56843;52.020;5.670;2023-03-19T05:43:04;100968.28;;;15.07;56.72
69624;BME280;56843;52.020;5.670;2023-03-19T05:44:35;100970.66;;;15.09;56.98
69624;BME280;56843;52.020;5.670;2023-03-19T05:46:35;100982.88;;;15.06;57.07
69624;BME280;56843;52.020;5.670;2023-03-19T05:48:05;100976.34;;;15.07;56.87
69624;BME280;56843;52.020;5.670;2023-03-19T05:49:41;100977.94;;;15.08;56.83
69624;BME280;56843;52.020;5.670;2023-03-19T05:51:12;100977.16;;;15.08;56.92
69624;BME280;56843;52.020;5.670;2023-03-19T05:52:45;100986.78;;;15.09;56.86
69624;BME280;56843;52.020;5.670;2023-03-19T05:54:16;100984.88;;;15.09;56.80
69624;BME280;56843;52.020;5.670;2023-03-19T05:56:11;100976.34;;;15.07;56.98
69624;BME280;56843;52.020;5.670;2023-03-19T05:57:54;100988.25;;;15.06;56.83
69624;BME280;56843;52.020;5.670;2023-03-19T05:59:28;100996.75;;;15.08;56.83
69624;BME280;56843;52.020;5.670;2023-03-19T06:01:12;100984.44;;;15.07;56.88
69624;BME280;56843;52.020;5.670;2023-03-19T06:02:43;100989.47;;;15.09;56.89
69624;BME280;56843;52.020;5.670;2023-03-19T06:04:40;100990.16;;;15.06;57.22
69624;BME280;56843;52.020;5.670;2023-03-19T06:06:10;100994.44;;;15.07;56.82
69624;BME280;56843;52.020;5.670;2023-03-19T06:07:46;100997.88;;;15.07;56.77
69624;BME280;56843;52.020;5.670;2023-03-19T06:09:30;101000.56;;;15.07;57.06
69624;BME280;56843;52.020;5.670;2023-03-19T06:11:00;101005.19;;;15.07;56.98
69624;BME280;56843;52.020;5.670;2023-03-19T06:12:31;100997.88;;;15.07;56.94
69624;BME280;56843;52.020;5.670;2023-03-19T06:14:18;100997.88;;;15.07;56.77
69624;BME280;56843;52.020;5.670;2023-03-19T06:16:00;100999.03;;;15.06;57.11
69624;BME280;56843;52.020;5.670;2023-03-19T06:17:37;101001.72;;;15.06;57.00
69624;BME280;56843;52.020;5.670;2023-03-19T06:19:11;101011.31;;;15.07;56.98
69624;BME280;56843;52.020;5.670;2023-03-19T06:20:43;101006.72;;;15.08;56.84
69624;BME280;56843;52.020;5.670;2023-03-19T06:22:14;101007.53;;;15.08;56.77
69624;BME280;56843;52.020;5.670;2023-03-19T06:23:44;101016.38;;;15.09;56.80
69624;BME280;56843;52.020;5.670;2023-03-19T06:25:18;101012.91;;;15.08;57.01
69624;BME280;56843;52.020;5.670;2023-03-19T06:26:48;101016.38;;;15.09;56.87
69624;BME280;56843;52.020;5.670;2023-03-19T06:28:19;101019.84;;;15.09;56.67
69624;BME280;56843;52.020;5.670;2023-03-19T06:29:50;101017.50;;;15.08;57.04
69624;BME280;56843;52.020;5.670;2023-03-19T06:31:29;101019.06;;;15.09;56.98
69624;BME280;56843;52.020;5.670;2023-03-19T06:33:02;101011.78;;;15.09;56.87
69624;BME280;56843;52.020;5.670;2023-03-19T06:34:35;101029.03;;;15.08;56.96
69624;BME280;56843;52.020;5.670;2023-03-19T06:36:06;101025.22;;;15.09;56.95
69624;BME280;56843;52.020;5.670;2023-03-19T06:37:37;101030.94;;;15.08;56.81
69624;BME280;56843;52.020;5.670;2023-03-19T06:39:07;101033.63;;;15.08;56.61
69624;BME280;56843;52.020;5.670;2023-03-19T06:40:38;101030.16;;;15.07;57.12
69624;BME280;56843;52.020;5.670;2023-03-19T06:42:09;101037.91;;;15.09;56.72
69624;BME280;56843;52.020;5.670;2023-03-19T06:43:39;101036.00;;;15.09;56.85
69624;BME280;56843;52.020;5.670;2023-03-19T06:45:12;101036.75;;;15.10;56.95
69624;BME280;56843;52.020;5.670;2023-03-19T06:46:45;101035.22;;;15.09;57.10
69624;BME280;56843;52.020;5.670;2023-03-19T06:48:15;101034.41;;;15.08;56.79
69624;BME280;56843;52.020;5.670;2023-03-19T06:49:46;101028.25;;;15.08;56.95
69624;BME280;56843;52.020;5.670;2023-03-19T06:51:16;101036.75;;;15.10;56.87
69624;BME280;56843;52.020;5.670;2023-03-19T06:52:47;101040.59;;;15.09;56.79
69624;BME280;56843;52.020;5.670;2023-03-19T06:54:17;101038.69;;;15.09;56.87
69624;BME280;56843;52.020;5.670;2023-03-19T06:55:48;101039.13;;;15.11;56.94
69624;BME280;56843;52.020;5.670;2023-03-19T06:57:19;101037.53;;;15.10;56.83
69624;BME280;56843;52.020;5.670;2023-03-19T06:58:49;101040.22;;;15.10;56.87
69624;BME280;56843;52.020;5.670;2023-03-19T07:00:20;101044.81;;;15.10;56.87
69624;BME280;56843;52.020;5.670;2023-03-19T07:01:51;101042.91;;;15.10;56.74
69624;BME280;56843;52.020;5.670;2023-03-19T07:03:21;101042.13;;;15.10;56.69
69624;BME280;56843;52.020;5.670;2023-03-19T07:04:52;101048.31;;;15.10;56.86
69624;BME280;56843;52.020;5.670;2023-03-19T07:06:22;101052.91;;;15.10;56.89
69624;BME280;56843;52.020;5.670;2023-03-19T07:07:53;101052.91;;;15.10;56.64
69624;BME280;56843;52.020;5.670;2023-03-19T07:09:23;101059.84;;;15.11;56.80
69624;BME280;56843;52.020;5.670;2023-03-19T07:10:55;101063.31;;;15.11;56.86
69624;BME280;56843;52.020;5.670;2023-03-19T07:12:26;101074.09;;;15.11;56.77
69624;BME280;56843;52.020;5.670;2023-03-19T07:13:57;101071.41;;;15.11;56.87
69624;BME280;56843;52.020;5.670;2023-03-19T07:15:27;101074.84;;;15.12;56.81
69624;BME280;56843;52.020;5.670;2023-03-19T07:16:58;101066.78;;;15.12;56.82
69624;BME280;56843;52.020;5.670;2023-03-19T07:18:28;101065.22;;;15.11;56.73
69624;BME280;56843;52.020;5.670;2023-03-19T07:19:59;101068.00;;;15.14;56.86
69624;BME280;56843;52.020;5.670;2023-03-19T07:21:29;101063.75;;;15.13;56.72
69624;BME280;56843;52.020;5.670;2023-03-19T07:23:00;101070.25;;;15.12;56.82
69624;BME280;56843;52.020;5.670;2023-03-19T07:24:31;101070.25;;;15.12;56.69
69624;BME280;56843;52.020;5.670;2023-03-19T07:26:01;101070.25;;;15.12;56.75
69624;BME280;56843;52.020;5.670;2023-03-19T07:27:32;101075.63;;;15.12;56.89
69624;BME280;56843;52.020;5.670;2023-03-19T07:29:03;101074.53;;;15.13;56.63
69624;BME280;56843;52.020;5.670;2023-03-19T07:30:33;101075.63;;;15.12;57.19
69624;BME280;56843;52.020;5.670;2023-03-19T07:32:05;101074.09;;;15.11;56.91
69624;BME280;56843;52.020;5.670;2023-03-19T07:33:35;101083.34;;;15.14;56.85
69624;BME280;56843;52.020;5.670;2023-03-19T07:35:06;101079.91;;;15.13;56.64
69624;BME280;56843;52.020;5.670;2023-03-19T07:36:37;101086.81;;;15.14;56.64
69624;BME280;56843;52.020;5.670;2023-03-19T07:38:08;101088.72;;;15.14;56.67
69624;BME280;56843;52.020;5.670;2023-03-19T07:39:39;101089.53;;;15.14;56.82
69624;BME280;56843;52.020;5.670;2023-03-19T07:41:09;101092.22;;;15.14;56.82
69624;BME280;56843;52.020;5.670;2023-03-19T07:42:40;101087.63;;;15.15;56.70
69624;BME280;56843;52.020;5.670;2023-03-19T07:44:10;101096.47;;;15.15;56.81
69624;BME280;56843;52.020;5.670;2023-03-19T07:45:41;101094.56;;;15.16;56.83
69624;BME280;56843;52.020;5.670;2023-03-19T07:47:11;101092.22;;;15.14;56.86
69624;BME280;56843;52.020;5.670;2023-03-19T07:48:42;101105.34;;;15.16;56.58
69624;BME280;56843;52.020;5.670;2023-03-19T07:50:12;101090.31;;;15.15;56.79
69624;BME280;56843;52.020;5.670;2023-03-19T07:51:42;101096.47;;;15.15;56.90
69624;BME280;56843;52.020;5.670;2023-03-19T07:53:13;101095.34;;;15.16;56.83
69624;BME280;56843;52.020;5.670;2023-03-19T07:54:44;101088.06;;;15.17;56.89
69624;BME280;56843;52.020;5.670;2023-03-19T07:56:14;101091.88;;;15.16;56.80
69624;BME280;56843;52.020;5.670;2023-03-19T07:57:45;101096.91;;;15.17;56.80
69624;BME280;56843;52.020;5.670;2023-03-19T07:59:15;101098.47;;;15.18;56.63
69624;BME280;56843;52.020;5.670;2023-03-19T08:00:46;101108.03;;;15.16;56.68
69624;BME280;56843;52.020;5.670;2023-03-19T08:02:16;101100.03;;;15.19;56.92
69624;BME280;56843;52.020;5.670;2023-03-19T08:03:47;101098.47;;;15.18;56.68
69624;BME280;56843;52.020;5.670;2023-03-19T08:05:18;101112.38;;;15.20;56.67
69624;BME280;56843;52.020;5.670;2023-03-19T08:06:48;101111.59;;;15.20;56.78
69624;BME280;56843;52.020;5.670;2023-03-19T08:08:19;101113.91;;;15.21;56.58
69624;BME280;56843;52.020;5.670;2023-03-19T08:09:50;101111.22;;;15.21;56.71